createdAt,value
2017-11-06T00:02:48.306Z,5.30
2017-11-06T00:05:50.303Z,5.47
2017-11-06T00:08:52.274Z,5.80
2017-11-06T00:11:54.543Z,6.20
2017-11-06T00:14:56.453Z,7.57
2017-11-06T00:17:58.342Z,8.77
2017-11-06T00:21:00.271Z,8.20
2017-11-06T00:24:02.254Z,7.87
2017-11-06T00:27:04.749Z,7.47
2017-11-06T00:30:06.756Z,6.67
2017-11-06T00:33:08.773Z,5.90
2017-11-06T00:36:12.193Z,5.50
2017-11-06T00:39:14.444Z,5.90
2017-11-06T00:42:16.349Z,5.60
2017-11-06T00:45:18.379Z,5.50
2017-11-06T00:48:21.038Z,5.80
2017-11-06T00:51:23.327Z,5.27
2017-11-06T00:54:25.298Z,5.70
2017-11-06T00:57:28.218Z,5.63
2017-11-06T01:00:30.136Z,5.63
2017-11-06T01:03:32.428Z,6.10
2017-11-06T01:06:34.461Z,6.07
2017-11-06T01:09:37.550Z,6.43
2017-11-06T01:12:39.510Z,7.43
2017-11-06T01:15:41.493Z,5.90
2017-11-06T01:18:43.493Z,6.17
2017-11-06T01:21:45.784Z,5.80
2017-11-06T01:24:47.690Z,5.90
2017-11-06T01:27:50.754Z,5.40
2017-11-06T01:30:52.669Z,6.53
2017-11-06T01:33:55.559Z,7.30
2017-11-06T01:36:57.459Z,6.77
2017-11-06T01:40:00.159Z,7.13
2017-11-06T01:43:02.814Z,7.10
2017-11-06T01:46:05.121Z,7.30
2017-11-06T01:49:07.186Z,7.60
2017-11-06T01:52:09.593Z,7.43
2017-11-06T01:55:11.566Z,6.10
2017-11-06T01:58:13.477Z,6.83
2017-11-06T02:01:15.392Z,7.53
2017-11-06T02:04:17.378Z,7.37
2017-11-06T02:07:19.322Z,7.13
2017-11-06T02:10:21.256Z,7.60
2017-11-06T02:13:23.228Z,8.80
2017-11-06T02:16:25.579Z,9.10
2017-11-06T02:19:27.477Z,9.43
2017-11-06T02:22:30.582Z,9.00
2017-11-06T02:25:33.245Z,9.03
2017-11-06T02:28:35.168Z,9.27
2017-11-06T02:31:37.861Z,8.03
2017-11-06T02:34:40.954Z,7.87
2017-11-06T02:37:42.869Z,8.00
2017-11-06T02:40:44.820Z,7.10
2017-11-06T02:43:46.709Z,7.57
2017-11-06T02:46:49.436Z,8.43
2017-11-06T02:49:51.388Z,8.43
2017-11-06T02:52:53.336Z,9.50
2017-11-06T02:55:55.351Z,10.07
2017-11-06T02:58:57.307Z,10.37
2017-11-06T03:01:59.378Z,10.53
2017-11-06T03:05:01.306Z,11.23
2017-11-06T03:08:04.079Z,10.83
2017-11-06T03:11:06.006Z,10.60
2017-11-06T03:14:08.664Z,11.63
2017-11-06T03:17:10.989Z,11.30
2017-11-06T03:20:13.697Z,12.23
2017-11-06T03:23:16.716Z,12.07
2017-11-06T03:26:18.638Z,12.23
2017-11-06T03:29:20.586Z,12.30
2017-11-06T03:32:22.521Z,12.37
2017-11-06T03:35:24.795Z,12.27
2017-11-06T03:38:26.831Z,12.67
2017-11-06T03:41:28.875Z,11.83
2017-11-06T03:44:32.382Z,11.93
2017-11-06T03:47:34.358Z,11.90
2017-11-06T03:50:36.286Z,11.90
2017-11-06T03:53:39.461Z,12.83
2017-11-06T03:56:41.366Z,12.13
2017-11-06T03:59:44.170Z,13.97
2017-11-06T04:02:46.838Z,13.50
2017-11-06T04:05:48.757Z,14.23
2017-11-06T04:08:51.539Z,13.53
2017-11-06T04:11:53.458Z,13.70
2017-11-06T04:14:55.358Z,14.00
2017-11-06T04:17:57.298Z,13.53
2017-11-06T04:21:00.083Z,12.67
2017-11-06T04:24:02.140Z,12.70
2017-11-06T04:27:04.163Z,12.60
2017-11-06T04:30:06.074Z,14.50
2017-11-06T04:33:07.971Z,20.70
2017-11-06T04:36:09.885Z,18.70
2017-11-06T04:39:11.804Z,18.13
2017-11-06T04:42:13.745Z,18.30
2017-11-06T04:45:15.722Z,17.30
2017-11-06T04:48:17.700Z,16.20
2017-11-06T04:51:19.619Z,17.33
2017-11-06T04:54:21.575Z,16.37
2017-11-06T04:57:23.492Z,14.97
2017-11-06T05:00:26.531Z,15.67
2017-11-06T05:03:28.421Z,14.90
2017-11-06T05:06:31.323Z,16.30
2017-11-06T05:09:33.218Z,16.10
2017-11-06T05:12:35.206Z,16.90
2017-11-06T05:15:37.218Z,15.70
2017-11-06T05:18:39.754Z,16.43
2017-11-06T05:21:41.666Z,16.17
2017-11-06T05:24:43.738Z,16.90
2017-11-06T05:27:45.640Z,17.73
2017-11-06T05:30:47.717Z,18.23
2017-11-06T05:33:49.725Z,17.40
2017-11-06T05:36:52.120Z,17.23
2017-11-06T05:39:54.073Z,16.43
2017-11-06T05:42:56.212Z,15.50
2017-11-06T05:45:58.149Z,16.83
2017-11-06T05:49:00.155Z,17.27
2017-11-06T05:52:02.950Z,17.00
2017-11-06T05:55:04.901Z,16.67
2017-11-06T05:58:06.902Z,16.10
2017-11-06T06:01:08.979Z,15.70
2017-11-06T06:04:11.567Z,15.77
2017-11-06T06:07:13.566Z,16.07
2017-11-06T06:10:15.593Z,16.50
2017-11-06T06:13:18.357Z,15.93
2017-11-06T06:16:20.269Z,15.97
2017-11-06T06:19:22.190Z,17.67
2017-11-06T06:22:24.115Z,16.20
2017-11-06T06:25:26.041Z,16.00
2017-11-06T06:28:27.964Z,15.80
2017-11-06T06:31:29.949Z,15.57
2017-11-06T06:34:31.933Z,17.53
2017-11-06T06:37:33.929Z,18.90
2017-11-06T06:40:35.902Z,16.17
2017-11-06T06:43:37.845Z,18.43
2017-11-06T06:46:39.744Z,18.90
2017-11-06T06:49:41.679Z,19.30
2017-11-06T06:52:43.571Z,19.63
2017-11-06T06:55:46.357Z,20.13
2017-11-06T06:58:48.317Z,20.10
2017-11-06T07:01:50.299Z,21.37
2017-11-06T07:04:52.310Z,22.07
2017-11-06T07:07:55.015Z,20.20
2017-11-06T07:10:57.762Z,21.03
2017-11-06T07:13:59.756Z,19.93
2017-11-06T07:17:01.655Z,18.50
2017-11-06T07:20:03.615Z,19.37
2017-11-06T07:23:05.636Z,19.83
2017-11-06T07:26:07.553Z,18.90
2017-11-06T07:29:09.449Z,17.27
2017-11-06T07:32:11.436Z,17.23
2017-11-06T07:35:13.371Z,16.43
2017-11-06T07:38:16.062Z,16.87
2017-11-06T07:41:19.586Z,14.40
2017-11-06T07:44:22.355Z,16.07
2017-11-06T07:47:24.376Z,12.93
2017-11-06T07:50:27.084Z,22.97
2017-11-06T07:53:29.778Z,15.90
2017-11-06T07:56:32.491Z,10.23
2017-11-06T07:59:35.273Z,7.60
2017-11-06T08:02:37.196Z,6.77
2017-11-06T08:05:39.262Z,6.68
2017-11-06T08:08:42.142Z,6.15
2017-11-06T08:11:44.125Z,5.68
2017-11-06T08:14:46.205Z,5.07
2017-11-06T08:17:48.190Z,5.40
2017-11-06T08:20:51.080Z,4.72
2017-11-06T08:23:53.003Z,4.85
2017-11-06T08:26:55.768Z,4.93
2017-11-06T08:29:57.743Z,4.15
2017-11-06T08:32:59.756Z,4.72
2017-11-06T08:36:02.425Z,4.12
2017-11-06T08:39:04.369Z,4.40
2017-11-06T08:42:06.297Z,4.50
2017-11-06T08:45:08.283Z,4.37
2017-11-06T08:48:10.286Z,4.72
2017-11-06T08:51:12.203Z,4.45
2017-11-06T08:54:14.157Z,5.05
2017-11-06T08:57:16.849Z,4.18
2017-11-06T09:00:18.839Z,4.65
2017-11-06T09:03:20.797Z,4.18
2017-11-06T09:06:22.782Z,4.75
2017-11-06T09:09:24.724Z,5.93
2017-11-06T09:12:26.673Z,4.62
2017-11-06T09:15:29.680Z,4.50
2017-11-06T09:18:31.668Z,4.35
2017-11-06T09:21:33.940Z,3.83
2017-11-06T09:24:35.916Z,4.05
2017-11-06T09:27:37.907Z,4.10
2017-11-06T09:30:39.898Z,4.32
2017-11-06T09:33:41.907Z,4.20
2017-11-06T09:36:43.909Z,4.30
2017-11-06T09:39:46.794Z,4.25
2017-11-06T09:42:48.722Z,3.85
2017-11-06T09:45:51.792Z,4.05
2017-11-06T09:48:54.598Z,3.37
2017-11-06T09:51:56.550Z,3.72
2017-11-06T09:54:58.541Z,3.50
2017-11-06T09:58:00.477Z,3.25
2017-11-06T10:01:02.433Z,3.08
2017-11-06T10:04:05.455Z,2.87
2017-11-06T10:07:08.226Z,3.45
2017-11-06T10:10:10.201Z,3.50
2017-11-06T10:13:12.098Z,3.37
2017-11-06T10:16:14.200Z,3.00
2017-11-06T10:19:16.117Z,3.22
2017-11-06T10:22:18.057Z,2.92
2017-11-06T10:25:20.126Z,3.45
2017-11-06T10:28:22.805Z,3.47
2017-11-06T10:31:24.722Z,3.20
2017-11-06T10:34:26.658Z,3.75
2017-11-06T10:37:28.584Z,3.22
2017-11-06T10:40:30.525Z,3.37
2017-11-06T10:43:32.524Z,3.28
2017-11-06T10:46:34.614Z,3.20
2017-11-06T10:49:36.599Z,3.40
2017-11-06T10:52:38.915Z,2.97
2017-11-06T10:55:40.973Z,3.65
2017-11-06T10:58:43.165Z,3.62
2017-11-06T11:01:45.187Z,3.35
2017-11-06T11:04:47.975Z,3.80
2017-11-06T11:07:49.870Z,3.60
2017-11-06T11:10:52.843Z,2.97
2017-11-06T11:13:54.960Z,3.35
2017-11-06T11:16:57.948Z,3.50
2017-11-06T11:19:59.869Z,2.70
2017-11-06T11:23:02.106Z,2.87
2017-11-06T11:26:04.010Z,2.65
2017-11-06T11:29:05.930Z,2.72
2017-11-06T11:32:07.845Z,2.70
2017-11-06T11:35:09.774Z,2.97
2017-11-06T11:38:12.465Z,2.92
2017-11-06T11:41:15.174Z,2.62
2017-11-06T11:44:17.927Z,2.70
2017-11-06T11:47:19.898Z,2.83
2017-11-06T11:50:21.898Z,2.50
2017-11-06T11:53:23.838Z,2.12
2017-11-06T11:56:26.002Z,2.40
2017-11-06T11:59:28.770Z,2.40
2017-11-06T12:02:30.888Z,2.10
2017-11-06T12:05:33.775Z,2.58
2017-11-06T12:08:35.706Z,2.00
2017-11-06T12:11:37.636Z,2.17
2017-11-06T12:14:41.178Z,2.55
2017-11-06T12:17:43.950Z,2.37
2017-11-06T12:20:45.866Z,2.55
2017-11-06T12:23:48.628Z,2.62
2017-11-06T12:26:50.606Z,2.20
2017-11-06T12:29:53.035Z,2.53
2017-11-06T12:32:55.806Z,2.37
2017-11-06T12:35:57.823Z,1.90
2017-11-06T12:39:00.614Z,2.20
2017-11-06T12:42:02.879Z,2.50
2017-11-06T12:45:04.889Z,1.98
2017-11-06T12:48:06.841Z,2.10
2017-11-06T12:51:09.571Z,2.45
2017-11-06T12:54:11.538Z,2.15
2017-11-06T12:57:13.541Z,2.17
2017-11-06T13:00:16.310Z,1.90
2017-11-06T13:03:18.198Z,1.83
2017-11-06T13:06:20.200Z,2.00
2017-11-06T13:09:22.183Z,2.03
2017-11-06T13:12:24.137Z,1.75
2017-11-06T13:15:26.038Z,1.90
2017-11-06T13:18:27.974Z,4.82
2017-11-06T13:21:30.681Z,2.47
2017-11-06T13:24:32.726Z,1.98
2017-11-06T13:27:35.527Z,1.77
2017-11-06T13:30:38.292Z,1.77
2017-11-06T13:33:40.229Z,1.98
2017-11-06T13:36:42.289Z,1.77
2017-11-06T13:39:45.131Z,1.80
2017-11-06T13:42:47.052Z,1.40
2017-11-06T13:45:49.112Z,1.30
2017-11-06T13:48:51.133Z,1.92
2017-11-06T13:51:53.046Z,2.40
2017-11-06T13:54:55.793Z,1.92
2017-11-06T13:57:57.793Z,1.45
2017-11-06T14:00:59.735Z,1.50
2017-11-06T14:04:01.643Z,0.82
2017-11-06T14:07:03.666Z,0.60
2017-11-06T14:10:06.399Z,0.90
2017-11-06T14:13:08.434Z,0.70
2017-11-06T14:16:11.137Z,0.62
2017-11-06T14:19:13.120Z,0.82
2017-11-06T14:22:15.106Z,0.70
2017-11-06T14:25:18.273Z,0.80
2017-11-06T14:28:20.291Z,0.75
2017-11-06T14:31:22.229Z,0.90
2017-11-06T14:34:24.161Z,0.88
2017-11-06T14:37:26.242Z,1.30
2017-11-06T14:40:29.675Z,17.87
2017-11-06T14:43:32.379Z,5.60
2017-11-06T14:46:36.000Z,1.87
2017-11-06T14:49:39.156Z,1.30
2017-11-06T14:52:41.082Z,1.10
2017-11-06T14:55:43.037Z,1.43
2017-11-06T14:58:45.860Z,1.80
2017-11-06T15:01:47.801Z,1.87
2017-11-06T15:04:49.748Z,1.67
2017-11-06T15:07:52.811Z,1.97
2017-11-06T15:10:54.735Z,1.67
2017-11-06T15:13:57.454Z,2.20
2017-11-06T15:16:59.516Z,2.33
2017-11-06T15:20:01.431Z,4.27
2017-11-06T15:23:03.447Z,2.83
2017-11-06T15:26:05.438Z,3.50
2017-11-06T15:29:07.415Z,4.30
2017-11-06T15:32:09.419Z,7.73
2017-11-06T15:35:11.402Z,17.40
2017-11-06T15:38:13.400Z,22.67
2017-11-06T15:41:16.171Z,23.50
2017-11-06T15:44:18.117Z,14.93
2017-11-06T15:47:20.027Z,15.30
2017-11-06T15:50:22.050Z,45.27
2017-11-06T15:53:24.741Z,21.63
2017-11-06T15:56:27.430Z,17.73
2017-11-06T15:59:29.391Z,11.43
2017-11-06T16:02:31.606Z,9.47
2017-11-06T16:05:33.595Z,5.00
2017-11-06T16:08:35.649Z,17.60
2017-11-06T16:11:37.623Z,8.87
2017-11-06T16:14:39.567Z,10.10
2017-11-06T16:17:41.460Z,7.30
2017-11-06T16:20:43.508Z,4.60
2017-11-06T16:23:45.446Z,5.53
2017-11-06T16:26:47.386Z,7.40
2017-11-06T16:29:50.173Z,7.50
2017-11-06T16:32:52.886Z,8.87
2017-11-06T16:35:55.650Z,7.97
2017-11-06T16:38:57.866Z,5.93
2017-11-06T16:42:00.649Z,4.93
2017-11-06T16:45:02.586Z,3.87
2017-11-06T16:48:04.632Z,3.20
2017-11-06T16:51:07.351Z,2.80
2017-11-06T16:54:10.111Z,2.67
2017-11-06T16:57:12.104Z,2.00
2017-11-06T17:00:14.060Z,1.50
2017-11-06T17:03:16.254Z,1.93
2017-11-06T17:06:18.246Z,2.13
2017-11-06T17:09:20.190Z,1.70
2017-11-06T17:12:22.087Z,1.60
2017-11-06T17:15:24.638Z,2.70
2017-11-06T17:18:27.535Z,27.07
2017-11-06T17:21:29.499Z,8.90
2017-11-06T17:24:31.427Z,6.20
2017-11-06T17:27:33.887Z,6.07
2017-11-06T17:30:36.599Z,2.97
2017-11-06T17:33:39.405Z,3.43
2017-11-06T17:36:42.732Z,3.50
2017-11-06T17:39:44.666Z,2.70
2017-11-06T17:42:46.586Z,2.47
2017-11-06T17:45:49.482Z,3.00
2017-11-06T17:48:52.247Z,2.40
2017-11-06T17:51:54.964Z,2.50
2017-11-06T17:54:56.887Z,2.87
2017-11-06T17:57:59.565Z,3.50
2017-11-06T18:01:02.250Z,5.97
2017-11-06T18:04:04.187Z,5.93
2017-11-06T18:07:06.180Z,5.60
2017-11-06T18:10:08.246Z,5.27
2017-11-06T18:13:10.164Z,5.50
2017-11-06T18:16:12.182Z,4.87
2017-11-06T18:19:14.949Z,4.60
2017-11-06T18:22:16.862Z,4.80
2017-11-06T18:25:19.545Z,4.03
2017-11-06T18:28:21.846Z,5.07
2017-11-06T18:31:25.338Z,5.77
2017-11-06T18:34:27.628Z,6.23
2017-11-06T18:37:29.602Z,6.67
2017-11-06T18:40:31.555Z,6.13
2017-11-06T18:43:33.508Z,4.63
2017-11-06T18:46:36.319Z,5.87
2017-11-06T18:49:38.410Z,4.87
2017-11-06T18:52:41.136Z,4.73
2017-11-06T18:55:43.092Z,4.83
2017-11-06T18:58:45.821Z,5.20
2017-11-06T19:01:47.770Z,4.47
2017-11-06T19:04:50.566Z,5.17
2017-11-06T19:07:52.533Z,6.50
2017-11-06T19:10:54.522Z,10.03
2017-11-06T19:13:57.249Z,8.30
2017-11-06T19:16:59.999Z,7.77
2017-11-06T19:20:01.908Z,10.27
2017-11-06T19:23:03.865Z,8.90
2017-11-06T19:26:05.765Z,8.60
2017-11-06T19:29:07.858Z,8.03
2017-11-06T19:32:10.616Z,8.03
2017-11-06T19:35:12.561Z,7.67
2017-11-06T19:38:15.340Z,7.53
2017-11-06T19:41:17.386Z,8.90
2017-11-06T19:44:19.322Z,7.90
2017-11-06T19:47:22.115Z,8.07
2017-11-06T19:50:24.045Z,8.20
2017-11-06T19:53:26.017Z,7.73
2017-11-06T19:56:29.003Z,7.57
2017-11-06T19:59:31.715Z,8.43
2017-11-06T20:02:33.654Z,8.03
2017-11-06T20:05:35.566Z,9.37
2017-11-06T20:08:38.234Z,9.53
2017-11-06T20:11:40.349Z,13.40
2017-11-06T20:14:43.138Z,15.30
2017-11-06T20:17:45.068Z,31.80
2017-11-06T20:20:46.963Z,20.63
2017-11-06T20:23:48.996Z,15.57
2017-11-06T20:26:51.701Z,13.33
2017-11-06T20:29:54.393Z,12.70
2017-11-06T20:32:57.057Z,12.97
2017-11-06T20:35:59.072Z,20.00
2017-11-06T20:39:00.965Z,16.90
2017-11-06T20:42:03.880Z,15.30
2017-11-06T20:45:06.549Z,15.47
2017-11-06T20:48:08.814Z,17.80
2017-11-06T20:51:10.746Z,17.63
2017-11-06T20:54:13.451Z,18.20
2017-11-06T20:57:16.203Z,19.10
2017-11-06T21:00:18.205Z,21.13
2017-11-06T21:03:20.243Z,19.13
2017-11-06T21:06:22.169Z,19.13
2017-11-06T21:09:24.257Z,19.83
2017-11-06T21:12:26.230Z,19.63
2017-11-06T21:15:28.131Z,18.83
2017-11-06T21:18:30.046Z,20.47
2017-11-06T21:21:31.970Z,21.00
2017-11-06T21:24:33.945Z,19.90
2017-11-06T21:27:35.870Z,19.87
2017-11-06T21:30:38.658Z,17.83
2017-11-06T21:33:40.577Z,19.00
2017-11-06T21:36:42.646Z,17.23
2017-11-06T21:39:45.397Z,16.63
2017-11-06T21:42:47.409Z,17.10
2017-11-06T21:45:49.331Z,16.73
2017-11-06T21:48:51.255Z,16.60
2017-11-06T21:51:53.261Z,17.47
2017-11-06T21:54:55.221Z,16.27
2017-11-06T21:57:57.123Z,15.67
2017-11-06T22:00:59.043Z,18.07
2017-11-06T22:04:00.962Z,17.03
2017-11-06T22:07:02.973Z,15.33
2017-11-06T22:10:04.941Z,15.63
2017-11-06T22:13:07.104Z,15.93
2017-11-06T22:16:09.125Z,15.07
2017-11-06T22:19:11.846Z,15.03
2017-11-06T22:22:14.536Z,16.30
2017-11-06T22:25:16.806Z,16.27
2017-11-06T22:28:18.783Z,18.70
2017-11-06T22:31:21.077Z,19.50
2017-11-06T22:34:23.083Z,19.97
2017-11-06T22:37:25.371Z,19.40
2017-11-06T22:40:27.326Z,18.53
2017-11-06T22:43:30.507Z,21.63
2017-11-06T22:46:32.424Z,20.13
2017-11-06T22:49:34.430Z,20.07
2017-11-06T22:52:36.361Z,21.33
2017-11-06T22:55:38.294Z,21.70
2017-11-06T22:58:40.387Z,21.37
2017-11-06T23:01:42.298Z,20.00
2017-11-06T23:04:44.227Z,20.93
2017-11-06T23:07:46.206Z,21.47
2017-11-06T23:10:48.245Z,20.13
2017-11-06T23:13:50.470Z,19.13
2017-11-06T23:16:52.466Z,19.30
2017-11-06T23:19:55.068Z,19.03
2017-11-06T23:22:57.038Z,19.90
2017-11-06T23:25:58.964Z,19.63
2017-11-06T23:29:01.956Z,18.33
2017-11-06T23:32:03.925Z,19.53
2017-11-06T23:35:06.710Z,18.30
2017-11-06T23:38:08.720Z,19.10
2017-11-06T23:41:10.653Z,19.53
2017-11-06T23:44:12.654Z,20.07
2017-11-06T23:47:14.544Z,18.83
2017-11-06T23:50:16.755Z,19.27
2017-11-06T23:53:18.673Z,19.93
2017-11-06T23:56:20.594Z,18.70
2017-11-06T23:59:22.567Z,18.57
